KAPN/APN METAR and TAF weather

Enter ICAO airport designator
Station Type Date Time Source
KAPN METAR 2019/08/19 22:54 UTC NOAA

KAPN 192254Z AUTO 12010KT 10SM CLR 23/12 A3001 RMK AO2 SLP163 T02280122


Station Type Date Time Source
KAPN Decoded METAR 2019/08/19 22:54 UTC NOAA

ALPENA COUNTY REGIONAL AIRPORT, MI, United States (KAPN) 45-05N 083-34W 210M
Aug 19, 2019 - 06:54 PM EDT / 2019.08.19 2254 UTC
Wind: from the ESE (120 degrees) at 12 MPH (10 KT):0
Visibility: 10 mile(s):0
Sky conditions: clear
Temperature: 73.0 F (22.8 C)
Dew Point: 54.0 F (12.2 C)
Relative Humidity: 51%
Pressure (altimeter): 30.01 in. Hg (1016 hPa)
ob: KAPN 192254Z AUTO 12010KT 10SM CLR 23/12 A3001 RMK AO2 SLP163 T02280122
cycle: 23

Station Type Date Time Source
KAPN TAF 2019/08/19 19:27 UTC NOAA

TAF
AMD KAPN 191924Z 1919/2018 12006KT P6SM SKC
FM201000 VRB03KT P6SM SKC
FM201500 22006KT P6SM SKC

Example: see airport list